sensor_id;sensor_type;location;lat;lon;timestamp;P1;durP1;ratioP1;P2;durP2;ratioP2
83119;SDS011;73001;51.784;4.660;2024-01-11T00:00:36;22.81;;;22.34;;
83119;SDS011;73001;51.784;4.660;2024-01-11T00:03:02;21.79;;;21.26;;
83119;SDS011;73001;51.784;4.660;2024-01-11T00:05:28;21.14;;;20.77;;
83119;SDS011;73001;51.784;4.660;2024-01-11T00:07:53;22.13;;;21.63;;
83119;SDS011;73001;51.784;4.660;2024-01-11T00:10:19;21.57;;;21.09;;
83119;SDS011;73001;51.784;4.660;2024-01-11T00:12:45;21.37;;;21.06;;
83119;SDS011;73001;51.784;4.660;2024-01-11T00:15:11;21.44;;;20.93;;
83119;SDS011;73001;51.784;4.660;2024-01-11T00:17:37;20.63;;;20.28;;
83119;SDS011;73001;51.784;4.660;2024-01-11T00:20:03;21.06;;;20.62;;
83119;SDS011;73001;51.784;4.660;2024-01-11T00:22:28;20.57;;;20.20;;
83119;SDS011;73001;51.784;4.660;2024-01-11T00:24:54;20.46;;;20.05;;
83119;SDS011;73001;51.784;4.660;2024-01-11T00:27:19;21.12;;;20.66;;
83119;SDS011;73001;51.784;4.660;2024-01-11T00:29:45;21.68;;;21.14;;
83119;SDS011;73001;51.784;4.660;2024-01-11T00:32:10;21.02;;;20.65;;
83119;SDS011;73001;51.784;4.660;2024-01-11T00:34:36;21.56;;;21.13;;
83119;SDS011;73001;51.784;4.660;2024-01-11T00:37:02;21.26;;;20.93;;
83119;SDS011;73001;51.784;4.660;2024-01-11T00:39:27;21.54;;;21.16;;
83119;SDS011;73001;51.784;4.660;2024-01-11T00:41:54;22.59;;;21.81;;
83119;SDS011;73001;51.784;4.660;2024-01-11T00:44:20;22.16;;;21.56;;
83119;SDS011;73001;51.784;4.660;2024-01-11T00:46:45;21.12;;;20.68;;
83119;SDS011;73001;51.784;4.660;2024-01-11T00:49:11;21.28;;;20.71;;
83119;SDS011;73001;51.784;4.660;2024-01-11T00:51:36;21.35;;;20.81;;
83119;SDS011;73001;51.784;4.660;2024-01-11T00:54:02;21.70;;;21.13;;
83119;SDS011;73001;51.784;4.660;2024-01-11T00:56:27;22.11;;;21.55;;
83119;SDS011;73001;51.784;4.660;2024-01-11T00:58:53;21.52;;;20.99;;
83119;SDS011;73001;51.784;4.660;2024-01-11T01:01:18;21.61;;;21.10;;
83119;SDS011;73001;51.784;4.660;2024-01-11T01:03:44;20.60;;;20.06;;
83119;SDS011;73001;51.784;4.660;2024-01-11T01:06:09;21.52;;;21.05;;
83119;SDS011;73001;51.784;4.660;2024-01-11T01:08:35;22.05;;;21.46;;
83119;SDS011;73001;51.784;4.660;2024-01-11T01:11:00;20.80;;;20.40;;
83119;SDS011;73001;51.784;4.660;2024-01-11T01:13:26;21.30;;;20.67;;
83119;SDS011;73001;51.784;4.660;2024-01-11T01:15:51;20.96;;;20.49;;
83119;SDS011;73001;51.784;4.660;2024-01-11T01:18:17;21.06;;;20.53;;
83119;SDS011;73001;51.784;4.660;2024-01-11T01:20:42;21.34;;;20.87;;
83119;SDS011;73001;51.784;4.660;2024-01-11T01:23:08;20.75;;;20.29;;
83119;SDS011;73001;51.784;4.660;2024-01-11T01:25:34;21.10;;;20.57;;
83119;SDS011;73001;51.784;4.660;2024-01-11T01:27:59;21.28;;;20.63;;
83119;SDS011;73001;51.784;4.660;2024-01-11T01:30:26;21.09;;;20.57;;
83119;SDS011;73001;51.784;4.660;2024-01-11T01:32:52;21.68;;;21.22;;
83119;SDS011;73001;51.784;4.660;2024-01-11T01:35:18;21.97;;;21.30;;
83119;SDS011;73001;51.784;4.660;2024-01-11T01:37:43;21.76;;;21.09;;
83119;SDS011;73001;51.784;4.660;2024-01-11T01:40:10;21.88;;;21.26;;
83119;SDS011;73001;51.784;4.660;2024-01-11T01:42:40;21.85;;;21.33;;
83119;SDS011;73001;51.784;4.660;2024-01-11T01:45:08;22.35;;;21.80;;
83119;SDS011;73001;51.784;4.660;2024-01-11T01:47:33;23.29;;;22.72;;
83119;SDS011;73001;51.784;4.660;2024-01-11T01:49:59;23.32;;;22.57;;
83119;SDS011;73001;51.784;4.660;2024-01-11T01:52:25;22.01;;;21.51;;
83119;SDS011;73001;51.784;4.660;2024-01-11T01:54:50;22.21;;;21.79;;
83119;SDS011;73001;51.784;4.660;2024-01-11T01:57:17;22.46;;;21.89;;
83119;SDS011;73001;51.784;4.660;2024-01-11T01:59:45;22.71;;;21.99;;
83119;SDS011;73001;51.784;4.660;2024-01-11T02:02:16;22.43;;;21.83;;
83119;SDS011;73001;51.784;4.660;2024-01-11T02:04:41;21.72;;;21.16;;
83119;SDS011;73001;51.784;4.660;2024-01-11T02:07:07;21.47;;;21.07;;
83119;SDS011;73001;51.784;4.660;2024-01-11T02:09:33;21.71;;;21.25;;
83119;SDS011;73001;51.784;4.660;2024-01-11T02:12:00;22.96;;;22.44;;
83119;SDS011;73001;51.784;4.660;2024-01-11T02:14:26;21.72;;;21.19;;
83119;SDS011;73001;51.784;4.660;2024-01-11T02:16:51;21.74;;;21.22;;
83119;SDS011;73001;51.784;4.660;2024-01-11T02:19:17;21.80;;;21.31;;
83119;SDS011;73001;51.784;4.660;2024-01-11T02:21:45;21.04;;;20.75;;
83119;SDS011;73001;51.784;4.660;2024-01-11T02:24:13;21.85;;;21.41;;
83119;SDS011;73001;51.784;4.660;2024-01-11T02:26:57;22.42;;;21.97;;
83119;SDS011;73001;51.784;4.660;2024-01-11T02:29:27;22.07;;;21.55;;
83119;SDS011;73001;51.784;4.660;2024-01-11T02:31:55;21.92;;;21.21;;
83119;SDS011;73001;51.784;4.660;2024-01-11T02:34:22;22.68;;;22.21;;
83119;SDS011;73001;51.784;4.660;2024-01-11T02:36:49;22.73;;;22.13;;
83119;SDS011;73001;51.784;4.660;2024-01-11T02:39:15;22.71;;;22.18;;
83119;SDS011;73001;51.784;4.660;2024-01-11T02:41:43;22.51;;;21.82;;
83119;SDS011;73001;51.784;4.660;2024-01-11T02:44:09;21.74;;;21.20;;
83119;SDS011;73001;51.784;4.660;2024-01-11T02:46:34;22.53;;;22.00;;
83119;SDS011;73001;51.784;4.660;2024-01-11T02:48:59;22.84;;;22.22;;
83119;SDS011;73001;51.784;4.660;2024-01-11T02:51:25;22.90;;;22.15;;
83119;SDS011;73001;51.784;4.660;2024-01-11T02:53:51;23.61;;;22.92;;
83119;SDS011;73001;51.784;4.660;2024-01-11T02:56:16;23.14;;;22.56;;
83119;SDS011;73001;51.784;4.660;2024-01-11T02:58:42;22.44;;;22.06;;
83119;SDS011;73001;51.784;4.660;2024-01-11T03:01:07;22.67;;;22.36;;
83119;SDS011;73001;51.784;4.660;2024-01-11T03:03:32;23.08;;;22.49;;
83119;SDS011;73001;51.784;4.660;2024-01-11T03:05:58;23.02;;;22.57;;
83119;SDS011;73001;51.784;4.660;2024-01-11T03:08:23;22.52;;;22.14;;
83119;SDS011;73001;51.784;4.660;2024-01-11T03:10:49;21.91;;;21.39;;
83119;SDS011;73001;51.784;4.660;2024-01-11T03:13:14;22.92;;;22.38;;
83119;SDS011;73001;51.784;4.660;2024-01-11T03:15:40;22.46;;;21.98;;
83119;SDS011;73001;51.784;4.660;2024-01-11T03:18:05;23.29;;;22.42;;
83119;SDS011;73001;51.784;4.660;2024-01-11T03:20:31;22.16;;;21.65;;
83119;SDS011;73001;51.784;4.660;2024-01-11T03:22:56;22.44;;;21.86;;
83119;SDS011;73001;51.784;4.660;2024-01-11T03:25:22;23.58;;;23.02;;
83119;SDS011;73001;51.784;4.660;2024-01-11T03:27:47;22.43;;;21.99;;
83119;SDS011;73001;51.784;4.660;2024-01-11T03:30:13;22.77;;;22.26;;
83119;SDS011;73001;51.784;4.660;2024-01-11T03:32:39;22.30;;;21.74;;
83119;SDS011;73001;51.784;4.660;2024-01-11T03:35:06;22.10;;;21.50;;
83119;SDS011;73001;51.784;4.660;2024-01-11T03:37:33;23.65;;;22.99;;
83119;SDS011;73001;51.784;4.660;2024-01-11T03:39:59;22.83;;;22.16;;
83119;SDS011;73001;51.784;4.660;2024-01-11T03:42:25;23.47;;;22.84;;
83119;SDS011;73001;51.784;4.660;2024-01-11T03:44:50;22.43;;;21.97;;
83119;SDS011;73001;51.784;4.660;2024-01-11T03:47:16;22.38;;;21.73;;
83119;SDS011;73001;51.784;4.660;2024-01-11T03:49:41;22.35;;;21.67;;
83119;SDS011;73001;51.784;4.660;2024-01-11T03:52:06;21.98;;;21.44;;
83119;SDS011;73001;51.784;4.660;2024-01-11T03:54:32;23.36;;;22.67;;
83119;SDS011;73001;51.784;4.660;2024-01-11T03:56:57;23.77;;;22.87;;
83119;SDS011;73001;51.784;4.660;2024-01-11T03:59:23;23.42;;;22.59;;
83119;SDS011;73001;51.784;4.660;2024-01-11T04:01:48;23.98;;;22.99;;
83119;SDS011;73001;51.784;4.660;2024-01-11T04:04:14;22.52;;;21.96;;
83119;SDS011;73001;51.784;4.660;2024-01-11T04:06:40;23.75;;;22.83;;
83119;SDS011;73001;51.784;4.660;2024-01-11T04:09:05;23.93;;;23.17;;
83119;SDS011;73001;51.784;4.660;2024-01-11T04:11:31;23.61;;;22.93;;
83119;SDS011;73001;51.784;4.660;2024-01-11T04:13:57;23.64;;;22.88;;
83119;SDS011;73001;51.784;4.660;2024-01-11T04:16:22;23.79;;;23.06;;
83119;SDS011;73001;51.784;4.660;2024-01-11T04:18:48;23.06;;;22.23;;
83119;SDS011;73001;51.784;4.660;2024-01-11T04:21:23;23.69;;;22.71;;
83119;SDS011;73001;51.784;4.660;2024-01-11T04:23:50;24.28;;;23.28;;
83119;SDS011;73001;51.784;4.660;2024-01-11T04:26:16;23.37;;;22.48;;
83119;SDS011;73001;51.784;4.660;2024-01-11T04:28:44;23.10;;;22.34;;
83119;SDS011;73001;51.784;4.660;2024-01-11T04:31:13;23.31;;;22.52;;
83119;SDS011;73001;51.784;4.660;2024-01-11T04:33:40;23.80;;;23.05;;
83119;SDS011;73001;51.784;4.660;2024-01-11T04:36:07;23.62;;;22.97;;
83119;SDS011;73001;51.784;4.660;2024-01-11T04:38:33;23.70;;;22.83;;
83119;SDS011;73001;51.784;4.660;2024-01-11T04:40:58;23.96;;;23.16;;
83119;SDS011;73001;51.784;4.660;2024-01-11T04:43:24;23.78;;;23.17;;
83119;SDS011;73001;51.784;4.660;2024-01-11T04:45:49;24.38;;;23.86;;
83119;SDS011;73001;51.784;4.660;2024-01-11T04:48:15;24.31;;;23.53;;
83119;SDS011;73001;51.784;4.660;2024-01-11T04:50:40;24.70;;;24.06;;
83119;SDS011;73001;51.784;4.660;2024-01-11T04:53:06;25.08;;;24.23;;
83119;SDS011;73001;51.784;4.660;2024-01-11T04:55:32;25.28;;;24.48;;
83119;SDS011;73001;51.784;4.660;2024-01-11T04:57:57;25.59;;;24.67;;
83119;SDS011;73001;51.784;4.660;2024-01-11T05:00:23;23.67;;;22.91;;
83119;SDS011;73001;51.784;4.660;2024-01-11T05:02:48;23.86;;;23.05;;
83119;SDS011;73001;51.784;4.660;2024-01-11T05:05:14;26.24;;;25.36;;
83119;SDS011;73001;51.784;4.660;2024-01-11T05:07:39;25.71;;;24.79;;
83119;SDS011;73001;51.784;4.660;2024-01-11T05:10:05;26.12;;;25.14;;
83119;SDS011;73001;51.784;4.660;2024-01-11T05:12:31;26.06;;;25.23;;
83119;SDS011;73001;51.784;4.660;2024-01-11T05:14:56;26.54;;;25.69;;
83119;SDS011;73001;51.784;4.660;2024-01-11T05:17:22;26.29;;;25.32;;
83119;SDS011;73001;51.784;4.660;2024-01-11T05:19:48;26.07;;;25.10;;
83119;SDS011;73001;51.784;4.660;2024-01-11T05:22:14;27.57;;;26.49;;
83119;SDS011;73001;51.784;4.660;2024-01-11T05:24:40;26.57;;;25.52;;
83119;SDS011;73001;51.784;4.660;2024-01-11T05:27:05;27.21;;;26.25;;
83119;SDS011;73001;51.784;4.660;2024-01-11T05:29:30;28.30;;;27.21;;
83119;SDS011;73001;51.784;4.660;2024-01-11T05:31:57;29.10;;;28.15;;
83119;SDS011;73001;51.784;4.660;2024-01-11T05:34:22;29.20;;;28.10;;
83119;SDS011;73001;51.784;4.660;2024-01-11T05:36:48;28.02;;;27.23;;
83119;SDS011;73001;51.784;4.660;2024-01-11T05:39:14;29.76;;;28.68;;
83119;SDS011;73001;51.784;4.660;2024-01-11T05:41:42;30.90;;;29.80;;
83119;SDS011;73001;51.784;4.660;2024-01-11T05:44:09;29.34;;;28.37;;
83119;SDS011;73001;51.784;4.660;2024-01-11T05:46:34;30.78;;;29.43;;
83119;SDS011;73001;51.784;4.660;2024-01-11T05:49:00;32.25;;;31.13;;
83119;SDS011;73001;51.784;4.660;2024-01-11T05:51:25;32.09;;;30.86;;
83119;SDS011;73001;51.784;4.660;2024-01-11T05:53:52;29.77;;;28.83;;
83119;SDS011;73001;51.784;4.660;2024-01-11T05:56:18;30.86;;;29.68;;
83119;SDS011;73001;51.784;4.660;2024-01-11T05:58:44;31.01;;;29.60;;
83119;SDS011;73001;51.784;4.660;2024-01-11T06:01:10;32.30;;;30.80;;
83119;SDS011;73001;51.784;4.660;2024-01-11T06:03:35;30.80;;;29.44;;
83119;SDS011;73001;51.784;4.660;2024-01-11T06:06:02;32.40;;;31.11;;
83119;SDS011;73001;51.784;4.660;2024-01-11T06:08:29;32.12;;;30.74;;
83119;SDS011;73001;51.784;4.660;2024-01-11T06:10:55;31.87;;;30.55;;
83119;SDS011;73001;51.784;4.660;2024-01-11T06:13:21;31.40;;;30.29;;
83119;SDS011;73001;51.784;4.660;2024-01-11T06:15:46;31.84;;;30.52;;
83119;SDS011;73001;51.784;4.660;2024-01-11T06:18:12;32.33;;;31.32;;
83119;SDS011;73001;51.784;4.660;2024-01-11T06:20:37;32.53;;;31.24;;
83119;SDS011;73001;51.784;4.660;2024-01-11T06:23:03;33.58;;;32.14;;
83119;SDS011;73001;51.784;4.660;2024-01-11T06:25:28;33.96;;;32.71;;
83119;SDS011;73001;51.784;4.660;2024-01-11T06:27:54;33.47;;;32.12;;
83119;SDS011;73001;51.784;4.660;2024-01-11T06:30:20;33.80;;;32.55;;
83119;SDS011;73001;51.784;4.660;2024-01-11T06:32:45;33.40;;;31.72;;
83119;SDS011;73001;51.784;4.660;2024-01-11T06:35:11;33.35;;;32.35;;
83119;SDS011;73001;51.784;4.660;2024-01-11T06:37:36;34.56;;;33.02;;
83119;SDS011;73001;51.784;4.660;2024-01-11T06:40:02;35.25;;;33.63;;
83119;SDS011;73001;51.784;4.660;2024-01-11T06:42:29;34.58;;;33.27;;
83119;SDS011;73001;51.784;4.660;2024-01-11T06:44:55;35.03;;;33.77;;
83119;SDS011;73001;51.784;4.660;2024-01-11T06:47:21;34.08;;;32.56;;
83119;SDS011;73001;51.784;4.660;2024-01-11T06:49:46;34.22;;;32.85;;
83119;SDS011;73001;51.784;4.660;2024-01-11T06:52:12;35.90;;;34.40;;
83119;SDS011;73001;51.784;4.660;2024-01-11T06:54:39;35.78;;;34.48;;
83119;SDS011;73001;51.784;4.660;2024-01-11T06:57:05;38.29;;;36.04;;
83119;SDS011;73001;51.784;4.660;2024-01-11T06:59:30;37.89;;;36.02;;
83119;SDS011;73001;51.784;4.660;2024-01-11T07:01:56;38.09;;;36.50;;
83119;SDS011;73001;51.784;4.660;2024-01-11T07:04:21;38.26;;;36.53;;
83119;SDS011;73001;51.784;4.660;2024-01-11T07:06:47;39.56;;;37.89;;
83119;SDS011;73001;51.784;4.660;2024-01-11T07:09:13;40.13;;;38.27;;
83119;SDS011;73001;51.784;4.660;2024-01-11T07:11:38;41.50;;;39.13;;
83119;SDS011;73001;51.784;4.660;2024-01-11T07:14:04;40.55;;;38.33;;
83119;SDS011;73001;51.784;4.660;2024-01-11T07:16:29;38.80;;;36.90;;
83119;SDS011;73001;51.784;4.660;2024-01-11T07:18:56;40.20;;;38.09;;
83119;SDS011;73001;51.784;4.660;2024-01-11T07:21:25;41.91;;;39.62;;
83119;SDS011;73001;51.784;4.660;2024-01-11T07:23:57;40.59;;;38.27;;
83119;SDS011;73001;51.784;4.660;2024-01-11T07:26:24;41.34;;;39.03;;
83119;SDS011;73001;51.784;4.660;2024-01-11T07:28:50;42.08;;;40.06;;
83119;SDS011;73001;51.784;4.660;2024-01-11T07:31:15;43.45;;;40.58;;
83119;SDS011;73001;51.784;4.660;2024-01-11T07:33:41;43.03;;;40.46;;
83119;SDS011;73001;51.784;4.660;2024-01-11T07:36:07;43.04;;;40.91;;
83119;SDS011;73001;51.784;4.660;2024-01-11T07:38:34;42.58;;;40.62;;
83119;SDS011;73001;51.784;4.660;2024-01-11T07:41:00;41.31;;;39.23;;
83119;SDS011;73001;51.784;4.660;2024-01-11T07:43:26;44.07;;;41.87;;
83119;SDS011;73001;51.784;4.660;2024-01-11T07:45:54;42.58;;;40.74;;
83119;SDS011;73001;51.784;4.660;2024-01-11T07:48:21;44.45;;;42.23;;
83119;SDS011;73001;51.784;4.660;2024-01-11T07:50:48;44.59;;;42.16;;
83119;SDS011;73001;51.784;4.660;2024-01-11T07:53:13;44.73;;;42.07;;
83119;SDS011;73001;51.784;4.660;2024-01-11T07:55:40;45.51;;;43.11;;
83119;SDS011;73001;51.784;4.660;2024-01-11T07:58:05;47.09;;;44.65;;
83119;SDS011;73001;51.784;4.660;2024-01-11T08:00:31;46.88;;;43.88;;
83119;SDS011;73001;51.784;4.660;2024-01-11T08:02:57;47.20;;;44.27;;
83119;SDS011;73001;51.784;4.660;2024-01-11T08:05:22;45.02;;;42.75;;
83119;SDS011;73001;51.784;4.660;2024-01-11T08:07:48;48.00;;;45.56;;
83119;SDS011;73001;51.784;4.660;2024-01-11T08:10:14;47.23;;;44.94;;
83119;SDS011;73001;51.784;4.660;2024-01-11T08:12:39;48.57;;;45.74;;
83119;SDS011;73001;51.784;4.660;2024-01-11T08:15:04;48.45;;;45.86;;
83119;SDS011;73001;51.784;4.660;2024-01-11T08:17:30;47.20;;;44.44;;
83119;SDS011;73001;51.784;4.660;2024-01-11T08:19:56;47.07;;;44.30;;
83119;SDS011;73001;51.784;4.660;2024-01-11T08:22:22;49.10;;;46.17;;
83119;SDS011;73001;51.784;4.660;2024-01-11T08:24:48;46.74;;;44.16;;
83119;SDS011;73001;51.784;4.660;2024-01-11T08:27:14;48.02;;;45.87;;
83119;SDS011;73001;51.784;4.660;2024-01-11T08:29:42;45.88;;;43.48;;
83119;SDS011;73001;51.784;4.660;2024-01-11T08:32:08;46.89;;;44.56;;
83119;SDS011;73001;51.784;4.660;2024-01-11T08:34:34;46.55;;;44.49;;
83119;SDS011;73001;51.784;4.660;2024-01-11T08:36:59;47.36;;;44.79;;
83119;SDS011;73001;51.784;4.660;2024-01-11T08:39:25;48.05;;;45.42;;
83119;SDS011;73001;51.784;4.660;2024-01-11T08:41:50;50.84;;;47.77;;
83119;SDS011;73001;51.784;4.660;2024-01-11T08:44:17;48.89;;;46.39;;
83119;SDS011;73001;51.784;4.660;2024-01-11T08:46:43;48.56;;;46.18;;
83119;SDS011;73001;51.784;4.660;2024-01-11T08:49:09;49.04;;;46.51;;
83119;SDS011;73001;51.784;4.660;2024-01-11T08:51:34;47.98;;;46.22;;
83119;SDS011;73001;51.784;4.660;2024-01-11T08:54:00;49.07;;;46.97;;
83119;SDS011;73001;51.784;4.660;2024-01-11T08:56:26;47.02;;;44.91;;
83119;SDS011;73001;51.784;4.660;2024-01-11T08:58:53;49.75;;;46.88;;
83119;SDS011;73001;51.784;4.660;2024-01-11T09:01:18;48.63;;;45.82;;
83119;SDS011;73001;51.784;4.660;2024-01-11T09:03:44;48.40;;;45.67;;
83119;SDS011;73001;51.784;4.660;2024-01-11T09:06:09;49.13;;;46.61;;
83119;SDS011;73001;51.784;4.660;2024-01-11T09:08:36;47.34;;;44.99;;
83119;SDS011;73001;51.784;4.660;2024-01-11T09:11:01;48.06;;;45.62;;
83119;SDS011;73001;51.784;4.660;2024-01-11T09:13:27;47.12;;;45.06;;
83119;SDS011;73001;51.784;4.660;2024-01-11T09:15:53;48.18;;;45.71;;
83119;SDS011;73001;51.784;4.660;2024-01-11T09:18:19;48.27;;;45.88;;
83119;SDS011;73001;51.784;4.660;2024-01-11T09:20:45;46.53;;;44.36;;
83119;SDS011;73001;51.784;4.660;2024-01-11T09:23:12;47.61;;;45.20;;
83119;SDS011;73001;51.784;4.660;2024-01-11T09:25:37;48.09;;;45.85;;
83119;SDS011;73001;51.784;4.660;2024-01-11T09:28:03;51.24;;;48.07;;
83119;SDS011;73001;51.784;4.660;2024-01-11T09:30:29;49.71;;;46.63;;
83119;SDS011;73001;51.784;4.660;2024-01-11T09:32:54;47.14;;;44.65;;
83119;SDS011;73001;51.784;4.660;2024-01-11T09:35:23;47.41;;;44.91;;
83119;SDS011;73001;51.784;4.660;2024-01-11T09:37:49;48.25;;;45.76;;
83119;SDS011;73001;51.784;4.660;2024-01-11T09:40:16;48.64;;;45.87;;
83119;SDS011;73001;51.784;4.660;2024-01-11T09:42:43;47.74;;;45.04;;
83119;SDS011;73001;51.784;4.660;2024-01-11T09:45:17;48.07;;;45.32;;
83119;SDS011;73001;51.784;4.660;2024-01-11T09:47:43;47.95;;;45.93;;
83119;SDS011;73001;51.784;4.660;2024-01-11T09:50:14;47.11;;;45.08;;
83119;SDS011;73001;51.784;4.660;2024-01-11T09:52:45;48.49;;;46.02;;
83119;SDS011;73001;51.784;4.660;2024-01-11T09:55:18;49.45;;;47.02;;
83119;SDS011;73001;51.784;4.660;2024-01-11T09:57:44;48.25;;;45.92;;
83119;SDS011;73001;51.784;4.660;2024-01-11T10:00:18;49.23;;;46.28;;
83119;SDS011;73001;51.784;4.660;2024-01-11T10:02:47;47.77;;;45.34;;
83119;SDS011;73001;51.784;4.660;2024-01-11T10:05:13;47.34;;;44.85;;
83119;SDS011;73001;51.784;4.660;2024-01-11T10:07:41;48.14;;;45.79;;
83119;SDS011;73001;51.784;4.660;2024-01-11T10:10:07;46.88;;;44.21;;
83119;SDS011;73001;51.784;4.660;2024-01-11T10:12:37;44.88;;;42.87;;
83119;SDS011;73001;51.784;4.660;2024-01-11T10:15:07;45.39;;;43.15;;
83119;SDS011;73001;51.784;4.660;2024-01-11T10:17:43;45.40;;;43.61;;
83119;SDS011;73001;51.784;4.660;2024-01-11T10:20:13;44.49;;;42.05;;
83119;SDS011;73001;51.784;4.660;2024-01-11T10:22:42;44.03;;;42.35;;
83119;SDS011;73001;51.784;4.660;2024-01-11T10:27:40;42.83;;;40.76;;
83119;SDS011;73001;51.784;4.660;2024-01-11T10:30:07;42.50;;;40.35;;
83119;SDS011;73001;51.784;4.660;2024-01-11T10:32:33;39.93;;;38.27;;
83119;SDS011;73001;51.784;4.660;2024-01-11T10:35:00;40.02;;;38.25;;
83119;SDS011;73001;51.784;4.660;2024-01-11T10:37:30;39.05;;;37.36;;
83119;SDS011;73001;51.784;4.660;2024-01-11T10:39:58;37.56;;;35.92;;
83119;SDS011;73001;51.784;4.660;2024-01-11T10:42:30;36.18;;;35.12;;
83119;SDS011;73001;51.784;4.660;2024-01-11T10:44:58;36.87;;;35.55;;
83119;SDS011;73001;51.784;4.660;2024-01-11T10:47:29;37.96;;;36.31;;
83119;SDS011;73001;51.784;4.660;2024-01-11T10:49:57;37.70;;;36.65;;
83119;SDS011;73001;51.784;4.660;2024-01-11T10:52:28;37.08;;;35.85;;
83119;SDS011;73001;51.784;4.660;2024-01-11T10:55:01;37.16;;;35.91;;
83119;SDS011;73001;51.784;4.660;2024-01-11T10:57:28;35.89;;;34.56;;
83119;SDS011;73001;51.784;4.660;2024-01-11T10:59:54;35.64;;;34.55;;
83119;SDS011;73001;51.784;4.660;2024-01-11T11:02:20;34.50;;;33.39;;
83119;SDS011;73001;51.784;4.660;2024-01-11T11:04:47;34.24;;;33.02;;
83119;SDS011;73001;51.784;4.660;2024-01-11T11:07:16;32.38;;;31.29;;
83119;SDS011;73001;51.784;4.660;2024-01-11T11:09:44;30.16;;;29.05;;
83119;SDS011;73001;51.784;4.660;2024-01-11T11:12:11;26.49;;;25.64;;
83119;SDS011;73001;51.784;4.660;2024-01-11T11:14:38;25.28;;;24.20;;
83119;SDS011;73001;51.784;4.660;2024-01-11T11:17:03;24.73;;;23.37;;
83119;SDS011;73001;51.784;4.660;2024-01-11T11:19:31;24.63;;;23.34;;
83119;SDS011;73001;51.784;4.660;2024-01-11T11:21:57;25.09;;;23.54;;
83119;SDS011;73001;51.784;4.660;2024-01-11T11:24:22;25.21;;;23.70;;
83119;SDS011;73001;51.784;4.660;2024-01-11T11:26:48;26.18;;;24.58;;
83119;SDS011;73001;51.784;4.660;2024-01-11T11:29:14;26.73;;;25.27;;
83119;SDS011;73001;51.784;4.660;2024-01-11T11:31:44;29.12;;;27.21;;
83119;SDS011;73001;51.784;4.660;2024-01-11T11:34:19;29.85;;;27.79;;
83119;SDS011;73001;51.784;4.660;2024-01-11T11:36:48;28.44;;;27.06;;
83119;SDS011;73001;51.784;4.660;2024-01-11T11:39:20;29.50;;;27.66;;
83119;SDS011;73001;51.784;4.660;2024-01-11T11:41:47;29.11;;;27.39;;
83119;SDS011;73001;51.784;4.660;2024-01-11T11:44:14;29.24;;;27.38;;
83119;SDS011;73001;51.784;4.660;2024-01-11T11:46:41;28.53;;;26.69;;
83119;SDS011;73001;51.784;4.660;2024-01-11T11:49:07;27.63;;;26.20;;
83119;SDS011;73001;51.784;4.660;2024-01-11T11:51:32;28.03;;;26.53;;
83119;SDS011;73001;51.784;4.660;2024-01-11T11:53:58;27.67;;;26.23;;
83119;SDS011;73001;51.784;4.660;2024-01-11T11:56:23;27.22;;;25.97;;
83119;SDS011;73001;51.784;4.660;2024-01-11T11:58:49;28.71;;;26.90;;
83119;SDS011;73001;51.784;4.660;2024-01-11T12:01:17;28.32;;;27.12;;
83119;SDS011;73001;51.784;4.660;2024-01-11T12:03:43;30.67;;;28.75;;
83119;SDS011;73001;51.784;4.660;2024-01-11T12:06:17;28.48;;;26.94;;
83119;SDS011;73001;51.784;4.660;2024-01-11T12:08:44;27.92;;;26.71;;
83119;SDS011;73001;51.784;4.660;2024-01-11T12:11:15;28.31;;;26.98;;
83119;SDS011;73001;51.784;4.660;2024-01-11T12:13:43;27.94;;;26.47;;
83119;SDS011;73001;51.784;4.660;2024-01-11T12:16:09;27.07;;;25.70;;
83119;SDS011;73001;51.784;4.660;2024-01-11T12:18:35;26.58;;;25.69;;
83119;SDS011;73001;51.784;4.660;2024-01-11T12:21:01;28.51;;;26.95;;
83119;SDS011;73001;51.784;4.660;2024-01-11T12:23:27;28.04;;;26.62;;
83119;SDS011;73001;51.784;4.660;2024-01-11T12:25:56;28.20;;;26.84;;
83119;SDS011;73001;51.784;4.660;2024-01-11T12:28:23;26.54;;;25.52;;
83119;SDS011;73001;51.784;4.660;2024-01-11T12:30:49;27.02;;;26.02;;
83119;SDS011;73001;51.784;4.660;2024-01-11T12:33:15;26.98;;;26.03;;
83119;SDS011;73001;51.784;4.660;2024-01-11T12:35:41;25.75;;;25.03;;
83119;SDS011;73001;51.784;4.660;2024-01-11T12:38:07;26.78;;;25.87;;
83119;SDS011;73001;51.784;4.660;2024-01-11T12:40:37;26.59;;;25.63;;
83119;SDS011;73001;51.784;4.660;2024-01-11T12:43:04;25.95;;;24.97;;
83119;SDS011;73001;51.784;4.660;2024-01-11T12:45:31;25.71;;;24.98;;
83119;SDS011;73001;51.784;4.660;2024-01-11T12:48:00;26.25;;;25.57;;
83119;SDS011;73001;51.784;4.660;2024-01-11T12:50:28;27.39;;;26.65;;
83119;SDS011;73001;51.784;4.660;2024-01-11T12:53:05;26.12;;;25.27;;
83119;SDS011;73001;51.784;4.660;2024-01-11T12:55:35;23.76;;;23.13;;
83119;SDS011;73001;51.784;4.660;2024-01-11T12:58:04;24.74;;;23.86;;
83119;SDS011;73001;51.784;4.660;2024-01-11T13:00:30;23.47;;;22.83;;
83119;SDS011;73001;51.784;4.660;2024-01-11T13:02:56;22.52;;;21.92;;
83119;SDS011;73001;51.784;4.660;2024-01-11T13:05:21;22.93;;;22.22;;
83119;SDS011;73001;51.784;4.660;2024-01-11T13:07:47;21.93;;;21.39;;
83119;SDS011;73001;51.784;4.660;2024-01-11T13:10:12;22.05;;;21.26;;
83119;SDS011;73001;51.784;4.660;2024-01-11T13:12:39;21.93;;;21.37;;
83119;SDS011;73001;51.784;4.660;2024-01-11T13:15:05;21.61;;;21.06;;
83119;SDS011;73001;51.784;4.660;2024-01-11T13:17:31;21.51;;;21.11;;
83119;SDS011;73001;51.784;4.660;2024-01-11T13:19:56;21.98;;;21.22;;
83119;SDS011;73001;51.784;4.660;2024-01-11T13:22:24;21.25;;;20.56;;
83119;SDS011;73001;51.784;4.660;2024-01-11T13:24:50;20.60;;;20.13;;
83119;SDS011;73001;51.784;4.660;2024-01-11T13:27:15;21.31;;;20.72;;
83119;SDS011;73001;51.784;4.660;2024-01-11T13:29:41;20.99;;;20.50;;
83119;SDS011;73001;51.784;4.660;2024-01-11T13:32:07;20.95;;;20.16;;
83119;SDS011;73001;51.784;4.660;2024-01-11T13:34:32;23.55;;;22.78;;
83119;SDS011;73001;51.784;4.660;2024-01-11T13:36:57;22.12;;;21.63;;
83119;SDS011;73001;51.784;4.660;2024-01-11T13:39:24;22.89;;;22.22;;
83119;SDS011;73001;51.784;4.660;2024-01-11T13:41:50;23.27;;;22.58;;
83119;SDS011;73001;51.784;4.660;2024-01-11T13:44:16;22.45;;;22.04;;
83119;SDS011;73001;51.784;4.660;2024-01-11T13:46:41;22.25;;;21.82;;
83119;SDS011;73001;51.784;4.660;2024-01-11T13:49:08;23.42;;;22.80;;
83119;SDS011;73001;51.784;4.660;2024-01-11T13:51:34;22.67;;;21.99;;
83119;SDS011;73001;51.784;4.660;2024-01-11T13:53:59;22.26;;;21.63;;
83119;SDS011;73001;51.784;4.660;2024-01-11T13:56:26;22.45;;;21.88;;
83119;SDS011;73001;51.784;4.660;2024-01-11T13:58:52;23.03;;;22.09;;
83119;SDS011;73001;51.784;4.660;2024-01-11T14:01:18;21.54;;;20.90;;
83119;SDS011;73001;51.784;4.660;2024-01-11T14:03:43;21.49;;;20.85;;
83119;SDS011;73001;51.784;4.660;2024-01-11T14:06:09;20.20;;;19.71;;
83119;SDS011;73001;51.784;4.660;2024-01-11T14:08:34;20.49;;;20.05;;
83119;SDS011;73001;51.784;4.660;2024-01-11T14:11:00;20.83;;;20.37;;
83119;SDS011;73001;51.784;4.660;2024-01-11T14:13:26;21.60;;;21.06;;
83119;SDS011;73001;51.784;4.660;2024-01-11T14:15:51;20.92;;;20.32;;
83119;SDS011;73001;51.784;4.660;2024-01-11T14:18:17;19.61;;;19.01;;